createdAt,value
2018-06-11T00:00:02.982Z,5.33
2018-06-11T00:02:29.998Z,5.60
2018-06-11T00:04:56.449Z,5.17
2018-06-11T00:07:22.962Z,5.77
2018-06-11T00:09:49.443Z,5.30
2018-06-11T00:12:16.686Z,5.80
2018-06-11T00:14:43.130Z,5.43
2018-06-11T00:17:09.624Z,5.50
2018-06-11T00:19:36.147Z,5.53
2018-06-11T00:22:03.277Z,5.87
2018-06-11T00:24:29.743Z,5.83
2018-06-11T00:26:56.225Z,5.90
2018-06-11T00:29:22.669Z,4.93
2018-06-11T00:31:49.166Z,5.80
2018-06-11T00:34:15.605Z,5.85
2018-06-11T00:36:42.111Z,6.00
2018-06-11T00:39:08.731Z,5.90
2018-06-11T00:41:35.221Z,5.40
2018-06-11T00:44:01.727Z,5.93
2018-06-11T00:46:28.265Z,5.47
2018-06-11T00:48:54.727Z,5.27
2018-06-11T00:51:21.224Z,5.73
2018-06-11T00:53:47.739Z,6.45
2018-06-11T00:56:14.213Z,6.37
2018-06-11T00:58:40.761Z,5.27
2018-06-11T01:01:07.221Z,5.07
2018-06-11T01:03:33.665Z,5.00
2018-06-11T01:06:00.197Z,5.50
2018-06-11T01:08:26.687Z,5.57
2018-06-11T01:10:53.209Z,6.47
2018-06-11T01:13:19.711Z,5.80
2018-06-11T01:15:46.219Z,5.75
2018-06-11T01:18:12.707Z,6.00
2018-06-11T01:20:39.170Z,6.10
2018-06-11T01:23:05.623Z,5.77
2018-06-11T01:25:32.127Z,5.53
2018-06-11T01:27:58.605Z,5.65
2018-06-11T01:30:25.039Z,5.90
2018-06-11T01:32:51.989Z,5.30
2018-06-11T01:35:18.565Z,5.77
2018-06-11T01:37:45.609Z,5.60
2018-06-11T01:40:12.751Z,5.97
2018-06-11T01:42:39.507Z,5.40
2018-06-11T01:45:06.015Z,5.40
2018-06-11T01:47:32.502Z,6.13
2018-06-11T01:50:05.001Z,6.05
2018-06-11T01:52:31.475Z,6.20
2018-06-11T01:54:57.959Z,5.70
2018-06-11T01:57:24.427Z,5.87
2018-06-11T01:59:50.943Z,6.03
2018-06-11T02:02:17.433Z,5.87
2018-06-11T02:04:43.935Z,5.50
2018-06-11T02:07:10.442Z,5.67
2018-06-11T02:09:36.915Z,6.10
2018-06-11T02:12:03.401Z,5.53
2018-06-11T02:14:29.919Z,5.87
2018-06-11T02:16:56.431Z,5.70
2018-06-11T02:19:22.906Z,5.80
2018-06-11T02:21:49.529Z,5.80
2018-06-11T02:24:15.967Z,5.33
2018-06-11T02:26:42.502Z,5.70
2018-06-11T02:29:09.015Z,6.30
2018-06-11T02:31:35.571Z,6.40
2018-06-11T02:34:02.366Z,6.90
2018-06-11T02:36:29.335Z,6.00
2018-06-11T02:38:55.859Z,6.10
2018-06-11T02:41:22.335Z,5.80
2018-06-11T02:43:48.854Z,6.12
2018-06-11T02:46:15.364Z,6.27
2018-06-11T02:48:41.837Z,6.00
2018-06-11T02:51:08.305Z,5.63
2018-06-11T02:53:34.787Z,5.77
2018-06-11T02:56:01.235Z,5.60
2018-06-11T02:58:27.722Z,6.00
2018-06-11T03:00:54.221Z,5.83
2018-06-11T03:03:20.711Z,6.20
2018-06-11T03:05:47.206Z,5.72
2018-06-11T03:08:13.680Z,6.20
2018-06-11T03:10:40.223Z,5.77
2018-06-11T03:13:06.715Z,5.83
2018-06-11T03:15:33.182Z,5.50
2018-06-11T03:17:59.759Z,5.95
2018-06-11T03:20:26.235Z,5.20
2018-06-11T03:22:52.790Z,6.43
2018-06-11T03:25:19.336Z,5.95
2018-06-11T03:27:45.828Z,6.35
2018-06-11T03:30:12.356Z,6.33
2018-06-11T03:32:39.032Z,6.60
2018-06-11T03:35:05.522Z,5.70
2018-06-11T03:37:32.030Z,6.17
2018-06-11T03:39:58.514Z,5.45
2018-06-11T03:42:24.994Z,5.97
2018-06-11T03:44:52.164Z,6.23
2018-06-11T03:47:18.668Z,6.08
2018-06-11T03:50:04.302Z,5.97
2018-06-11T03:52:30.758Z,5.93
2018-06-11T03:54:57.234Z,5.80
2018-06-11T03:57:23.756Z,5.97
2018-06-11T03:59:50.194Z,6.43
2018-06-11T04:02:17.238Z,5.87
2018-06-11T04:04:43.688Z,6.03
2018-06-11T04:07:10.210Z,6.30
2018-06-11T04:09:36.660Z,6.20
2018-06-11T04:12:03.122Z,6.13
2018-06-11T04:14:29.621Z,5.97
2018-06-11T04:16:56.110Z,6.17
2018-06-11T04:19:22.600Z,6.33
2018-06-11T04:21:49.070Z,5.93
2018-06-11T04:24:15.549Z,6.92
2018-06-11T04:26:41.984Z,5.93
2018-06-11T04:29:08.456Z,5.63
2018-06-11T04:31:34.934Z,5.50
2018-06-11T04:34:01.451Z,5.60
2018-06-11T04:36:27.892Z,5.30
2018-06-11T04:38:54.351Z,5.70
2018-06-11T04:41:20.828Z,5.25
2018-06-11T04:43:47.297Z,5.90
2018-06-11T04:46:13.785Z,6.10
2018-06-11T04:48:40.282Z,5.83
2018-06-11T04:51:06.729Z,5.85
2018-06-11T04:53:33.205Z,5.83
2018-06-11T04:55:59.693Z,6.07
2018-06-11T04:58:26.133Z,6.43
2018-06-11T05:00:52.571Z,5.90
2018-06-11T05:03:19.057Z,5.53
2018-06-11T05:05:45.524Z,6.17
2018-06-11T05:08:12.004Z,5.87
2018-06-11T05:10:38.429Z,6.03
2018-06-11T05:13:04.884Z,6.10
2018-06-11T05:15:31.338Z,5.53
2018-06-11T05:17:57.820Z,5.80
2018-06-11T05:20:24.301Z,6.07
2018-06-11T05:22:50.757Z,6.30
2018-06-11T05:25:17.240Z,6.13
2018-06-11T05:27:43.691Z,7.55
2018-06-11T05:30:10.183Z,7.30
2018-06-11T05:32:36.654Z,5.73
2018-06-11T05:35:03.221Z,6.37
2018-06-11T05:37:29.693Z,6.60
2018-06-11T05:39:56.172Z,7.35
2018-06-11T05:42:23.513Z,7.20
2018-06-11T05:44:49.975Z,6.80
2018-06-11T05:47:16.455Z,6.95
2018-06-11T05:49:42.974Z,6.77
2018-06-11T05:52:09.473Z,6.30
2018-06-11T05:54:35.959Z,6.03
2018-06-11T05:57:02.447Z,6.27
2018-06-11T05:59:28.927Z,7.58
2018-06-11T06:01:55.395Z,6.90
2018-06-11T06:04:21.869Z,6.80
2018-06-11T06:06:48.349Z,7.40
2018-06-11T06:09:14.837Z,6.87
2018-06-11T06:11:41.336Z,6.97
2018-06-11T06:14:07.835Z,6.73
2018-06-11T06:16:34.254Z,8.65
2018-06-11T06:19:00.728Z,7.03
2018-06-11T06:21:27.218Z,7.97
2018-06-11T06:23:53.664Z,7.80
2018-06-11T06:26:20.140Z,7.33
2018-06-11T06:28:46.639Z,8.50
2018-06-11T06:31:13.099Z,8.37
2018-06-11T06:33:39.605Z,8.73
2018-06-11T06:36:06.179Z,6.92
2018-06-11T06:38:32.667Z,8.63
2018-06-11T06:40:59.121Z,7.63
2018-06-11T06:43:25.593Z,6.83
2018-06-11T06:45:52.152Z,6.80
2018-06-11T06:48:18.603Z,7.30
2018-06-11T06:50:45.214Z,7.57
2018-06-11T06:53:11.717Z,6.93
2018-06-11T06:55:38.162Z,7.40
2018-06-11T06:58:04.631Z,6.83
2018-06-11T07:00:31.073Z,6.77
2018-06-11T07:02:57.530Z,7.00
2018-06-11T07:05:24.023Z,8.53
2018-06-11T07:07:50.529Z,8.85
2018-06-11T07:10:17.113Z,9.50
2018-06-11T07:12:44.619Z,8.60
2018-06-11T07:15:11.080Z,8.23
2018-06-11T07:17:37.541Z,8.17
2018-06-11T07:20:04.014Z,8.08
2018-06-11T07:22:30.493Z,8.23
2018-06-11T07:24:56.953Z,9.30
2018-06-11T07:27:23.451Z,8.53
2018-06-11T07:29:49.975Z,8.15
2018-06-11T07:32:16.490Z,8.47
2018-06-11T07:34:43.003Z,9.20
2018-06-11T07:37:09.577Z,8.03
2018-06-11T07:39:36.096Z,8.20
2018-06-11T07:42:03.102Z,8.43
2018-06-11T07:44:29.619Z,7.80
2018-06-11T07:46:56.128Z,8.10
2018-06-11T07:49:23.200Z,7.63
2018-06-11T07:51:49.697Z,8.20
2018-06-11T07:54:16.178Z,8.23
2018-06-11T07:56:42.650Z,8.30
2018-06-11T07:59:09.103Z,8.27
2018-06-11T08:01:35.607Z,7.10
2018-06-11T08:04:02.129Z,7.83
2018-06-11T08:06:28.599Z,7.73
2018-06-11T08:08:55.195Z,7.23
2018-06-11T08:11:22.039Z,7.37
2018-06-11T08:13:48.537Z,7.23
2018-06-11T08:16:15.063Z,8.00
2018-06-11T08:18:41.569Z,7.70
2018-06-11T08:21:08.086Z,7.27
2018-06-11T08:23:34.556Z,7.53
2018-06-11T08:26:01.034Z,7.27
2018-06-11T08:28:27.530Z,8.33
2018-06-11T08:30:54.000Z,7.78
2018-06-11T08:33:20.494Z,7.67
2018-06-11T08:35:46.984Z,7.40
2018-06-11T08:38:13.475Z,10.08
2018-06-11T08:40:39.960Z,9.73
2018-06-11T08:43:06.494Z,8.87
2018-06-11T08:45:32.932Z,8.40
2018-06-11T08:47:59.398Z,8.77
2018-06-11T08:50:25.848Z,7.13
2018-06-11T08:52:52.326Z,7.27
2018-06-11T08:55:18.774Z,7.27
2018-06-11T08:57:45.245Z,7.58
2018-06-11T09:00:12.616Z,7.13
2018-06-11T09:02:39.140Z,6.70
2018-06-11T09:05:05.599Z,6.80
2018-06-11T09:07:32.074Z,7.08
2018-06-11T09:09:58.560Z,7.30
2018-06-11T09:12:25.774Z,6.00
2018-06-11T09:14:52.244Z,6.20
2018-06-11T09:17:18.729Z,6.35
2018-06-11T09:19:45.240Z,6.30
2018-06-11T09:22:12.760Z,5.90
2018-06-11T09:24:39.258Z,7.63
2018-06-11T09:27:05.796Z,6.22
2018-06-11T09:29:32.278Z,6.15
2018-06-11T09:31:58.718Z,5.60
2018-06-11T09:34:25.860Z,6.10
2018-06-11T09:36:52.397Z,5.83
2018-06-11T09:39:18.910Z,6.83
2018-06-11T09:41:45.378Z,5.63
2018-06-11T09:44:11.897Z,6.30
2018-06-11T09:46:38.387Z,5.97
2018-06-11T09:49:04.895Z,5.47
2018-06-11T09:51:31.391Z,6.70
2018-06-11T09:53:57.877Z,6.22
2018-06-11T09:56:24.361Z,5.90
2018-06-11T09:58:50.884Z,5.43
2018-06-11T10:01:17.359Z,5.97
2018-06-11T10:03:43.872Z,5.83
2018-06-11T10:06:10.336Z,5.70
2018-06-11T10:08:36.809Z,6.63
2018-06-11T10:11:03.283Z,6.23
2018-06-11T10:13:29.833Z,6.03
2018-06-11T10:15:56.343Z,5.92
2018-06-11T10:18:25.472Z,5.78
2018-06-11T10:20:52.329Z,5.87
2018-06-11T10:23:18.853Z,5.60
2018-06-11T10:25:45.338Z,5.72
2018-06-11T10:28:11.821Z,5.53
2018-06-11T10:30:38.309Z,6.00
2018-06-11T10:33:04.776Z,5.73
2018-06-11T10:35:31.310Z,5.85
2018-06-11T10:37:57.765Z,6.22
2018-06-11T10:40:24.260Z,5.57
2018-06-11T10:42:50.729Z,5.90
2018-06-11T10:45:17.211Z,5.90
2018-06-11T10:47:43.732Z,6.05
2018-06-11T10:50:10.215Z,5.70
2018-06-11T10:52:36.704Z,6.53
2018-06-11T10:55:03.211Z,5.43
2018-06-11T10:57:29.691Z,6.10
2018-06-11T10:59:56.148Z,5.70
2018-06-11T11:02:23.014Z,6.13
2018-06-11T11:04:49.484Z,6.17
2018-06-11T11:07:15.965Z,5.90
2018-06-11T11:09:42.438Z,5.80
2018-06-11T11:12:09.465Z,5.27
2018-06-11T11:14:35.969Z,5.58
2018-06-11T11:17:02.435Z,5.40
2018-06-11T11:19:28.877Z,4.77
2018-06-11T11:21:55.341Z,4.90
2018-06-11T11:24:21.817Z,3.92
2018-06-11T11:26:48.341Z,3.75
2018-06-11T11:29:14.857Z,3.63
2018-06-11T11:31:41.321Z,3.83
2018-06-11T11:34:07.777Z,3.97
2018-06-11T11:36:34.241Z,3.52
2018-06-11T11:39:00.730Z,3.47
2018-06-11T11:41:27.231Z,3.43
2018-06-11T11:43:53.711Z,4.00
2018-06-11T11:46:20.233Z,3.80
2018-06-11T11:48:46.752Z,4.20
2018-06-11T11:51:13.256Z,4.33
2018-06-11T11:53:39.735Z,4.00
2018-06-11T11:56:06.235Z,3.45
2018-06-11T11:58:32.717Z,4.20
2018-06-11T12:00:59.212Z,4.53
2018-06-11T12:03:25.710Z,4.50
2018-06-11T12:05:52.227Z,3.97
2018-06-11T12:08:19.270Z,4.25
2018-06-11T12:10:45.774Z,4.10
2018-06-11T12:13:12.303Z,4.05
2018-06-11T12:15:38.737Z,4.40
2018-06-11T12:18:05.257Z,4.37
2018-06-11T12:20:31.755Z,4.17
2018-06-11T12:22:59.182Z,4.17
2018-06-11T12:25:25.682Z,4.37
2018-06-11T12:27:52.172Z,4.37
2018-06-11T12:30:18.644Z,4.57
2018-06-11T12:32:45.790Z,5.10
2018-06-11T12:35:12.326Z,4.80
2018-06-11T12:37:38.802Z,5.43
2018-06-11T12:40:05.312Z,5.40
2018-06-11T12:42:32.448Z,4.97
2018-06-11T12:44:58.920Z,5.37
2018-06-11T12:47:25.360Z,4.97
2018-06-11T12:49:51.813Z,4.55
2018-06-11T12:52:18.313Z,5.00
2018-06-11T12:54:44.816Z,5.20
2018-06-11T12:57:11.302Z,4.47
2018-06-11T12:59:37.886Z,4.70
2018-06-11T13:02:04.362Z,5.10
2018-06-11T13:04:30.882Z,4.67
2018-06-11T13:06:57.466Z,4.70
2018-06-11T13:09:24.002Z,4.90
2018-06-11T13:11:50.465Z,4.45
2018-06-11T13:14:16.955Z,4.70
2018-06-11T13:16:44.124Z,4.93
2018-06-11T13:19:10.608Z,4.70
2018-06-11T13:21:37.097Z,4.77
2018-06-11T13:24:03.584Z,5.33
2018-06-11T13:26:30.100Z,4.50
2018-06-11T13:28:56.558Z,4.40
2018-06-11T13:31:23.079Z,4.40
2018-06-11T13:33:50.244Z,5.53
2018-06-11T13:36:16.760Z,4.67
2018-06-11T13:38:43.273Z,4.28
2018-06-11T13:41:09.774Z,4.10
2018-06-11T13:43:36.249Z,4.60
2018-06-11T13:46:02.814Z,3.60
2018-06-11T13:48:29.288Z,3.45
2018-06-11T13:50:55.866Z,4.00
2018-06-11T13:53:22.385Z,3.90
2018-06-11T13:55:48.868Z,3.77
2018-06-11T13:58:15.408Z,3.30
2018-06-11T14:00:41.931Z,3.30
2018-06-11T14:03:08.413Z,3.00
2018-06-11T14:05:34.883Z,3.60
2018-06-11T14:08:01.372Z,2.93
2018-06-11T14:10:27.889Z,3.27
2018-06-11T14:12:54.404Z,3.23
2018-06-11T14:15:20.903Z,2.90
2018-06-11T14:17:47.353Z,3.47
2018-06-11T14:20:13.841Z,3.33
2018-06-11T14:22:40.599Z,3.45
2018-06-11T14:25:07.082Z,3.55
2018-06-11T14:27:33.567Z,3.63
2018-06-11T14:30:00.093Z,3.13
2018-06-11T14:32:26.989Z,3.30
2018-06-11T14:34:53.451Z,3.70
2018-06-11T14:37:19.925Z,3.50
2018-06-11T14:39:46.371Z,3.77
2018-06-11T14:42:12.859Z,3.50
2018-06-11T14:44:39.341Z,3.97
2018-06-11T14:47:05.839Z,3.50
2018-06-11T14:49:32.309Z,3.37
2018-06-11T14:51:58.761Z,3.73
2018-06-11T14:54:25.225Z,3.03
2018-06-11T14:56:51.695Z,3.55
2018-06-11T14:59:18.161Z,3.50
2018-06-11T15:01:44.656Z,3.20
2018-06-11T15:04:11.165Z,3.50
2018-06-11T15:06:37.666Z,3.20
2018-06-11T15:09:04.163Z,3.23
2018-06-11T15:11:30.633Z,3.80
2018-06-11T15:13:57.120Z,3.27
2018-06-11T15:16:23.616Z,3.53
2018-06-11T15:18:50.180Z,3.17
2018-06-11T15:21:16.660Z,2.80
2018-06-11T15:23:43.128Z,3.20
2018-06-11T15:26:09.619Z,3.33
2018-06-11T15:28:36.127Z,3.50
2018-06-11T15:31:02.624Z,3.67
2018-06-11T15:33:29.115Z,3.87
2018-06-11T15:35:55.667Z,2.70
2018-06-11T15:38:22.226Z,3.33
2018-06-11T15:40:48.744Z,3.40
2018-06-11T15:43:15.212Z,3.40
2018-06-11T15:45:41.734Z,3.97
2018-06-11T15:48:08.184Z,4.10
2018-06-11T15:50:34.698Z,3.35
2018-06-11T15:53:01.169Z,3.33
2018-06-11T15:55:27.649Z,4.33
2018-06-11T15:57:54.106Z,3.80
2018-06-11T16:00:20.608Z,3.77
2018-06-11T16:02:47.801Z,4.92
2018-06-11T16:05:14.313Z,4.80
2018-06-11T16:07:40.887Z,4.73
2018-06-11T16:10:07.414Z,5.33
2018-06-11T16:12:34.392Z,4.50
2018-06-11T16:15:00.994Z,6.27
2018-06-11T16:17:27.494Z,4.55
2018-06-11T16:19:53.988Z,4.40
2018-06-11T16:22:20.480Z,5.03
2018-06-11T16:24:46.932Z,5.63
2018-06-11T16:27:13.405Z,7.62
2018-06-11T16:29:39.881Z,7.90
2018-06-11T16:32:06.348Z,13.43
2018-06-11T16:34:32.838Z,14.10
2018-06-11T16:36:59.316Z,21.77
2018-06-11T16:39:25.757Z,18.67
2018-06-11T16:41:52.197Z,10.97
2018-06-11T16:44:18.670Z,7.67
2018-06-11T16:46:45.170Z,10.97
2018-06-11T16:49:11.631Z,7.53
2018-06-11T16:51:38.127Z,5.97
2018-06-11T16:54:04.588Z,6.17
2018-06-11T16:56:31.090Z,5.50
2018-06-11T16:58:57.593Z,4.43
2018-06-11T17:01:24.095Z,5.43
2018-06-11T17:03:50.595Z,5.53
2018-06-11T17:06:17.138Z,5.03
2018-06-11T17:08:43.570Z,5.10
2018-06-11T17:11:10.034Z,5.40
2018-06-11T17:13:37.013Z,6.08
2018-06-11T17:16:03.491Z,5.93
2018-06-11T17:18:29.981Z,6.70
2018-06-11T17:20:56.453Z,6.70
2018-06-11T17:23:22.923Z,7.33
2018-06-11T17:25:49.384Z,5.47
2018-06-11T17:28:15.831Z,5.75
2018-06-11T17:30:42.313Z,5.20
2018-06-11T17:33:08.769Z,5.43
2018-06-11T17:35:35.279Z,6.00
2018-06-11T17:38:01.780Z,5.35
2018-06-11T17:40:28.281Z,5.33
2018-06-11T17:42:54.783Z,5.37
2018-06-11T17:45:21.247Z,5.23
2018-06-11T17:47:47.735Z,4.97
2018-06-11T17:50:14.197Z,4.92
2018-06-11T17:52:40.705Z,4.77
2018-06-11T17:55:07.258Z,5.40
2018-06-11T17:57:33.865Z,4.22
2018-06-11T18:00:00.312Z,5.55
2018-06-11T18:02:26.823Z,4.53
2018-06-11T18:04:53.339Z,4.67
2018-06-11T18:07:19.835Z,4.83
2018-06-11T18:09:46.319Z,5.80
2018-06-11T18:12:12.849Z,5.30
2018-06-11T18:14:39.403Z,4.80
2018-06-11T18:17:05.855Z,4.57
2018-06-11T18:19:32.382Z,5.17
2018-06-11T18:21:58.915Z,5.42
2018-06-11T18:24:25.680Z,6.08
2018-06-11T18:26:52.168Z,4.90
2018-06-11T18:29:18.652Z,5.40
2018-06-11T18:31:45.181Z,4.43
2018-06-11T18:34:11.681Z,4.87
2018-06-11T18:36:38.199Z,5.15
2018-06-11T18:39:04.796Z,5.53
2018-06-11T18:41:31.314Z,4.87
2018-06-11T18:43:58.004Z,4.90
2018-06-11T18:46:24.558Z,5.12
2018-06-11T18:48:51.072Z,5.20
2018-06-11T18:51:17.538Z,4.63
2018-06-11T18:53:44.053Z,5.07
2018-06-11T18:56:10.543Z,5.77
2018-06-11T18:58:37.024Z,5.03
2018-06-11T19:01:03.492Z,4.97
2018-06-11T19:03:29.982Z,4.63
2018-06-11T19:05:56.457Z,5.30
2018-06-11T19:08:22.938Z,5.00
2018-06-11T19:10:49.404Z,4.45
2018-06-11T19:13:15.912Z,4.97
2018-06-11T19:15:42.434Z,5.03
2018-06-11T19:18:08.912Z,5.00
2018-06-11T19:20:35.914Z,4.62
2018-06-11T19:23:02.399Z,4.80
2018-06-11T19:25:28.883Z,4.83
2018-06-11T19:27:55.353Z,5.10
2018-06-11T19:30:21.829Z,4.57
2018-06-11T19:32:48.348Z,5.00
2018-06-11T19:35:14.882Z,4.90
2018-06-11T19:37:41.439Z,4.13
2018-06-11T19:40:07.938Z,4.78
2018-06-11T19:42:34.438Z,4.23
2018-06-11T19:45:00.953Z,4.67
2018-06-11T19:47:27.491Z,4.70
2018-06-11T19:50:04.176Z,5.13
2018-06-11T19:52:31.607Z,4.27
2018-06-11T19:54:58.620Z,4.80
2018-06-11T19:57:25.762Z,3.93
2018-06-11T19:59:52.853Z,3.73
2018-06-11T20:02:19.345Z,4.17
2018-06-11T20:04:45.908Z,3.70
2018-06-11T20:07:12.421Z,3.90
2018-06-11T20:09:39.031Z,4.03
2018-06-11T20:12:05.616Z,3.80
2018-06-11T20:14:32.146Z,4.37
2018-06-11T20:16:58.640Z,4.50
2018-06-11T20:19:25.136Z,4.23
2018-06-11T20:21:51.637Z,3.92
2018-06-11T20:24:18.102Z,4.63
2018-06-11T20:26:45.167Z,3.90
2018-06-11T20:29:11.602Z,3.70
2018-06-11T20:31:38.101Z,4.43
2018-06-11T20:34:04.632Z,4.03
2018-06-11T20:36:31.153Z,3.60
2018-06-11T20:38:57.690Z,3.95
2018-06-11T20:41:24.204Z,3.77
2018-06-11T20:43:50.714Z,3.40
2018-06-11T20:46:17.224Z,3.07
2018-06-11T20:48:43.705Z,3.60
2018-06-11T20:51:10.370Z,3.40
2018-06-11T20:53:36.943Z,3.13
2018-06-11T20:56:03.442Z,3.53
2018-06-11T20:58:29.914Z,4.35
2018-06-11T21:00:56.401Z,4.33
2018-06-11T21:03:22.947Z,3.00
2018-06-11T21:05:49.408Z,3.47
2018-06-11T21:08:15.948Z,3.93
2018-06-11T21:10:42.443Z,3.67
2018-06-11T21:13:08.932Z,3.37
2018-06-11T21:15:35.420Z,3.93
2018-06-11T21:18:01.870Z,3.77
2018-06-11T21:20:28.342Z,3.77
2018-06-11T21:22:55.099Z,3.90
2018-06-11T21:25:21.598Z,4.20
2018-06-11T21:27:48.087Z,3.97
2018-06-11T21:30:15.185Z,3.87
2018-06-11T21:32:41.694Z,3.60
2018-06-11T21:35:08.312Z,3.80
2018-06-11T21:37:34.795Z,4.00
2018-06-11T21:40:01.309Z,3.10
2018-06-11T21:42:28.420Z,3.53
2018-06-11T21:44:54.947Z,3.33
2018-06-11T21:47:21.408Z,4.63
2018-06-11T21:49:47.949Z,3.40
2018-06-11T21:52:14.688Z,3.67
2018-06-11T21:54:41.181Z,3.50
2018-06-11T21:57:07.631Z,3.10
2018-06-11T21:59:34.105Z,3.90
2018-06-11T22:02:00.575Z,3.63
2018-06-11T22:04:27.045Z,3.43
2018-06-11T22:06:53.561Z,2.93
2018-06-11T22:09:20.049Z,3.95
2018-06-11T22:11:46.540Z,3.40
2018-06-11T22:14:13.030Z,3.43
2018-06-11T22:16:39.491Z,3.10
2018-06-11T22:19:05.949Z,2.87
2018-06-11T22:21:32.454Z,3.20
2018-06-11T22:23:58.979Z,3.27
2018-06-11T22:26:25.460Z,3.60
2018-06-11T22:28:51.942Z,3.60
2018-06-11T22:31:18.426Z,3.60
2018-06-11T22:33:44.866Z,3.30
2018-06-11T22:36:11.336Z,3.23
2018-06-11T22:38:37.857Z,4.92
2018-06-11T22:41:04.389Z,3.17
2018-06-11T22:43:30.858Z,3.50
2018-06-11T22:45:57.340Z,3.43
2018-06-11T22:48:23.810Z,3.33
2018-06-11T22:50:50.298Z,3.17
2018-06-11T22:53:16.787Z,3.23
2018-06-11T22:55:43.236Z,3.37
2018-06-11T22:58:09.762Z,3.30
2018-06-11T23:00:36.278Z,3.52
2018-06-11T23:03:02.794Z,3.17
2018-06-11T23:05:29.271Z,3.50
2018-06-11T23:07:55.712Z,3.13
2018-06-11T23:10:22.248Z,3.20
2018-06-11T23:12:48.766Z,3.60
2018-06-11T23:15:15.230Z,3.27
2018-06-11T23:17:41.708Z,3.37
2018-06-11T23:20:08.202Z,3.02
2018-06-11T23:22:34.898Z,3.43
2018-06-11T23:25:01.394Z,2.83
2018-06-11T23:27:27.892Z,3.37
2018-06-11T23:29:54.382Z,3.50
2018-06-11T23:32:20.941Z,3.47
2018-06-11T23:34:47.449Z,3.20
2018-06-11T23:37:13.932Z,3.20
2018-06-11T23:39:40.398Z,3.27
2018-06-11T23:42:06.951Z,3.47
2018-06-11T23:44:33.416Z,3.75
2018-06-11T23:46:59.932Z,3.70
2018-06-11T23:49:26.411Z,2.97
2018-06-11T23:51:52.861Z,3.13
2018-06-11T23:54:19.341Z,3.00
2018-06-11T23:56:45.796Z,3.70
2018-06-11T23:59:12.269Z,3.33
